createdAt,value
2022-12-31T00:01:44.882Z,12.16
2022-12-31T00:04:11.236Z,12.17
2022-12-31T00:06:37.587Z,12.21
2022-12-31T00:09:06.621Z,12.26
2022-12-31T00:11:34.001Z,12.30
2022-12-31T00:14:00.310Z,12.29
2022-12-31T00:16:30.412Z,12.39
2022-12-31T00:18:59.253Z,12.39
2022-12-31T00:21:27.581Z,12.34
2022-12-31T00:23:54.198Z,12.33
2022-12-31T00:26:24.665Z,12.46
2022-12-31T00:28:52.651Z,12.38
2022-12-31T00:31:24.792Z,12.42
2022-12-31T00:33:51.918Z,12.55
2022-12-31T00:36:38.849Z,12.53
2022-12-31T00:39:08.441Z,12.53
2022-12-31T00:41:34.998Z,12.54
2022-12-31T00:44:01.692Z,12.59
2022-12-31T00:46:28.083Z,12.60
2022-12-31T00:48:54.458Z,12.57
2022-12-31T00:51:23.792Z,12.53
2022-12-31T00:53:50.290Z,12.67
2022-12-31T00:56:21.665Z,12.70
2022-12-31T00:58:50.000Z,12.70
2022-12-31T01:01:31.837Z,12.75
2022-12-31T01:04:05.535Z,12.78
2022-12-31T01:06:59.772Z,12.78
2022-12-31T01:09:26.787Z,12.70
2022-12-31T01:11:53.118Z,12.80
2022-12-31T01:14:20.407Z,12.85
2022-12-31T01:16:49.475Z,12.85
2022-12-31T01:19:21.688Z,12.85
2022-12-31T01:21:49.433Z,12.87
2022-12-31T01:24:16.096Z,12.90
2022-12-31T01:26:42.711Z,13.05
2022-12-31T01:29:10.095Z,13.20
2022-12-31T01:31:37.975Z,13.32
2022-12-31T01:34:05.475Z,13.33
2022-12-31T01:36:33.547Z,13.45
2022-12-31T01:39:02.805Z,13.52
2022-12-31T01:41:35.706Z,13.63
2022-12-31T01:44:03.743Z,13.62
2022-12-31T01:47:01.059Z,13.66
2022-12-31T01:49:40.864Z,13.64
2022-12-31T01:52:15.626Z,13.65
2022-12-31T01:54:47.683Z,13.74
2022-12-31T01:57:15.630Z,13.80
2022-12-31T01:59:43.231Z,13.86
2022-12-31T02:02:10.102Z,13.75
2022-12-31T02:04:36.466Z,13.93
2022-12-31T02:07:06.747Z,13.87
2022-12-31T02:09:35.619Z,13.83
2022-12-31T02:12:02.025Z,13.93
2022-12-31T02:14:32.128Z,13.97
2022-12-31T02:17:06.557Z,13.91
2022-12-31T02:20:07.433Z,13.77
2022-12-31T02:23:11.164Z,13.75
2022-12-31T02:25:58.411Z,13.81
2022-12-31T02:28:43.736Z,13.93
2022-12-31T02:31:29.245Z,13.81
2022-12-31T02:34:27.555Z,13.87
2022-12-31T02:36:58.215Z,13.79
2022-12-31T02:39:24.656Z,13.66
2022-12-31T02:41:52.036Z,13.77
2022-12-31T02:44:25.339Z,13.86
2022-12-31T02:47:06.661Z,13.73
2022-12-31T02:49:32.917Z,13.82
2022-12-31T02:52:10.625Z,13.76
2022-12-31T02:55:07.262Z,13.64
2022-12-31T02:57:53.018Z,13.65
2022-12-31T03:00:38.647Z,13.82
2022-12-31T03:03:07.537Z,13.76
2022-12-31T03:05:39.046Z,13.63
2022-12-31T03:08:05.485Z,13.77
2022-12-31T03:10:31.824Z,13.70
2022-12-31T03:12:58.580Z,13.70
2022-12-31T03:15:30.663Z,13.69
2022-12-31T03:18:06.383Z,13.76
2022-12-31T03:20:58.579Z,13.80
2022-12-31T03:23:30.059Z,13.83
2022-12-31T03:25:57.599Z,13.78
2022-12-31T03:28:26.534Z,13.72
2022-12-31T03:30:56.267Z,13.87
2022-12-31T03:33:23.819Z,13.76
2022-12-31T03:35:51.569Z,13.83
2022-12-31T03:38:19.070Z,13.78
2022-12-31T03:40:51.514Z,13.89
2022-12-31T03:43:19.484Z,13.82
2022-12-31T03:45:53.579Z,13.77
2022-12-31T03:48:22.576Z,13.88
2022-12-31T03:50:49.865Z,13.73
2022-12-31T03:53:16.865Z,13.79
2022-12-31T03:55:43.374Z,13.76
2022-12-31T03:58:09.660Z,13.89
2022-12-31T04:00:36.135Z,13.93
2022-12-31T04:03:02.459Z,13.92
2022-12-31T04:05:28.854Z,13.81
2022-12-31T04:07:55.743Z,13.83
2022-12-31T04:10:25.086Z,13.90
2022-12-31T04:12:51.429Z,14.01
2022-12-31T04:15:20.274Z,13.92
2022-12-31T04:17:47.598Z,14.05
2022-12-31T04:20:14.589Z,14.09
2022-12-31T04:22:40.932Z,14.13
2022-12-31T04:25:11.283Z,14.15
2022-12-31T04:27:43.440Z,14.24
2022-12-31T04:30:11.968Z,14.24
2022-12-31T04:32:38.357Z,14.28
2022-12-31T04:35:05.162Z,14.25
2022-12-31T04:37:31.529Z,14.19
2022-12-31T04:40:03.527Z,14.28
2022-12-31T04:42:32.067Z,14.28
2022-12-31T04:44:58.455Z,14.28
2022-12-31T04:47:24.788Z,14.16
2022-12-31T04:49:51.310Z,14.31
2022-12-31T04:52:17.753Z,14.27
2022-12-31T04:54:44.252Z,14.28
2022-12-31T04:57:10.601Z,14.43
2022-12-31T04:59:36.992Z,14.46
2022-12-31T05:02:03.547Z,14.42
2022-12-31T05:04:30.145Z,14.56
2022-12-31T05:06:56.503Z,14.45
2022-12-31T05:09:24.147Z,14.51
2022-12-31T05:11:50.784Z,14.66
2022-12-31T05:14:17.225Z,14.64
2022-12-31T05:16:43.639Z,14.62
2022-12-31T05:19:10.300Z,14.54
2022-12-31T05:21:36.978Z,14.63
2022-12-31T05:24:03.456Z,14.63
2022-12-31T05:26:30.066Z,14.58
2022-12-31T05:28:56.502Z,14.52
2022-12-31T05:31:23.036Z,14.68
2022-12-31T05:33:49.367Z,14.66
2022-12-31T05:36:15.733Z,14.53
2022-12-31T05:38:42.183Z,14.64
2022-12-31T05:41:08.553Z,14.60
2022-12-31T05:43:35.114Z,14.70
2022-12-31T05:46:03.054Z,14.63
2022-12-31T05:48:29.956Z,14.54
2022-12-31T05:50:56.315Z,14.61
2022-12-31T05:53:22.979Z,14.58
2022-12-31T05:55:50.096Z,14.74
2022-12-31T05:58:16.537Z,14.66
2022-12-31T06:00:42.997Z,14.61
2022-12-31T06:03:09.833Z,14.54
2022-12-31T06:05:39.645Z,14.55
2022-12-31T06:08:06.010Z,14.46
2022-12-31T06:10:32.325Z,14.34
2022-12-31T06:12:58.659Z,14.42
2022-12-31T06:15:25.006Z,14.56
2022-12-31T06:17:51.343Z,14.56
2022-12-31T06:20:17.833Z,14.68
2022-12-31T06:22:44.204Z,14.62
2022-12-31T06:25:10.603Z,14.61
2022-12-31T06:27:36.995Z,14.52
2022-12-31T06:30:03.912Z,14.57
2022-12-31T06:32:30.308Z,14.57
2022-12-31T06:34:56.604Z,14.63
2022-12-31T06:37:22.918Z,14.70
2022-12-31T06:39:49.261Z,14.52
2022-12-31T06:42:15.524Z,14.60
2022-12-31T06:44:41.850Z,14.74
2022-12-31T06:47:08.172Z,14.61
2022-12-31T06:49:34.477Z,14.60
2022-12-31T06:52:00.812Z,14.72
2022-12-31T06:54:27.140Z,14.70
2022-12-31T06:56:53.777Z,14.77
2022-12-31T06:59:27.897Z,14.73
2022-12-31T07:02:13.187Z,14.72
2022-12-31T07:05:03.852Z,14.71
2022-12-31T07:07:52.554Z,14.62
2022-12-31T07:10:33.424Z,14.68
2022-12-31T07:13:31.587Z,14.66
2022-12-31T07:16:19.006Z,14.68
2022-12-31T07:18:51.784Z,14.70
2022-12-31T07:21:28.378Z,14.72
2022-12-31T07:23:55.026Z,14.66
2022-12-31T07:26:57.060Z,14.61
2022-12-31T07:29:37.798Z,14.47
2022-12-31T07:32:39.067Z,14.68
2022-12-31T07:35:16.897Z,14.69
2022-12-31T07:38:01.497Z,14.58
2022-12-31T07:40:51.546Z,14.65
2022-12-31T07:43:29.399Z,14.71
2022-12-31T07:46:33.367Z,14.73
2022-12-31T07:49:00.005Z,14.68
2022-12-31T07:51:26.757Z,14.61
2022-12-31T07:53:53.167Z,14.57
2022-12-31T07:56:19.651Z,14.56
2022-12-31T07:59:14.666Z,14.52
2022-12-31T08:01:56.644Z,14.46
2022-12-31T08:04:42.115Z,14.50
2022-12-31T08:07:28.593Z,14.46
2022-12-31T08:10:09.109Z,14.43
2022-12-31T08:12:40.895Z,14.49
2022-12-31T08:15:15.372Z,14.52
2022-12-31T08:17:42.478Z,14.47
2022-12-31T08:20:16.619Z,14.28
2022-12-31T08:23:00.181Z,14.39
2022-12-31T08:25:42.921Z,14.35
2022-12-31T08:28:46.770Z,14.45
2022-12-31T08:31:33.332Z,14.47
2022-12-31T08:34:26.594Z,14.51
2022-12-31T08:37:03.204Z,14.48
2022-12-31T08:39:41.547Z,14.52
2022-12-31T08:42:25.667Z,14.40
2022-12-31T08:45:13.078Z,14.47
2022-12-31T08:47:47.561Z,14.51
2022-12-31T08:50:17.166Z,14.59
2022-12-31T08:52:43.861Z,14.59
2022-12-31T08:55:16.262Z,14.59
2022-12-31T08:58:01.761Z,14.46
2022-12-31T09:00:30.176Z,14.55
2022-12-31T09:03:19.991Z,14.59
2022-12-31T09:05:48.940Z,14.57
2022-12-31T09:08:44.380Z,14.58
2022-12-31T09:11:19.164Z,14.52
2022-12-31T09:14:21.159Z,14.57
2022-12-31T09:17:03.514Z,14.56
2022-12-31T09:19:29.926Z,14.52
2022-12-31T09:21:56.464Z,14.48
2022-12-31T09:24:23.052Z,14.52
2022-12-31T09:26:56.796Z,14.53
2022-12-31T09:29:39.885Z,14.49
2022-12-31T09:32:26.016Z,14.53
2022-12-31T09:35:03.842Z,14.58
2022-12-31T09:37:46.272Z,14.59
2022-12-31T09:40:36.751Z,14.52
2022-12-31T09:43:21.759Z,14.57
2022-12-31T09:46:18.694Z,14.65
2022-12-31T09:49:09.011Z,14.68
2022-12-31T09:51:38.215Z,14.64
2022-12-31T09:54:17.912Z,14.72
2022-12-31T09:56:59.172Z,14.68
2022-12-31T09:59:45.344Z,14.76
2022-12-31T10:02:30.595Z,14.75
2022-12-31T10:05:25.064Z,14.76
2022-12-31T10:08:14.720Z,14.79
2022-12-31T10:11:02.908Z,14.93
2022-12-31T10:13:37.971Z,15.13
2022-12-31T10:16:23.153Z,15.19
2022-12-31T10:19:12.848Z,15.15
2022-12-31T10:22:13.831Z,15.13
2022-12-31T10:25:01.998Z,15.14
2022-12-31T10:27:43.411Z,15.15
2022-12-31T10:30:17.493Z,15.20
2022-12-31T10:32:45.902Z,15.15
2022-12-31T10:35:36.851Z,15.22
2022-12-31T10:38:34.363Z,15.21
2022-12-31T10:41:19.497Z,15.52
2022-12-31T10:43:51.814Z,15.67
2022-12-31T10:46:43.026Z,15.75
2022-12-31T10:49:47.097Z,16.06
2022-12-31T10:52:24.117Z,16.14
2022-12-31T10:55:08.973Z,16.28
2022-12-31T10:58:12.515Z,16.39
2022-12-31T11:00:54.060Z,16.23
2022-12-31T11:03:28.970Z,16.00
2022-12-31T11:06:04.897Z,16.13
2022-12-31T11:09:08.983Z,16.26
2022-12-31T11:11:47.871Z,16.18
2022-12-31T11:14:56.191Z,16.14
2022-12-31T11:17:34.391Z,16.15
2022-12-31T11:20:27.748Z,16.10
2022-12-31T11:23:04.393Z,15.99
2022-12-31T11:25:49.602Z,16.08
2022-12-31T11:28:33.442Z,16.12
2022-12-31T11:31:19.935Z,16.12
2022-12-31T11:34:24.955Z,15.98
2022-12-31T11:37:27.500Z,16.04
2022-12-31T11:40:42.124Z,16.24
2022-12-31T11:43:26.705Z,16.27
2022-12-31T11:46:34.741Z,16.37
2022-12-31T11:49:12.887Z,16.51
2022-12-31T11:52:02.177Z,16.42
2022-12-31T11:54:43.383Z,16.32
2022-12-31T11:57:17.320Z,16.24
2022-12-31T11:59:43.877Z,16.20
2022-12-31T12:02:24.388Z,16.14
2022-12-31T12:04:51.413Z,16.20
2022-12-31T12:07:18.661Z,16.13
2022-12-31T12:09:45.941Z,16.14
2022-12-31T12:12:13.272Z,16.15
2022-12-31T12:14:42.487Z,16.16
2022-12-31T12:17:15.027Z,16.16
2022-12-31T12:19:44.971Z,16.21
2022-12-31T12:22:14.190Z,16.26
2022-12-31T12:24:51.350Z,16.48
2022-12-31T12:27:27.287Z,16.69
2022-12-31T12:29:53.870Z,16.64
2022-12-31T12:32:26.979Z,16.77
2022-12-31T12:34:53.736Z,16.64
2022-12-31T12:37:34.464Z,16.53
2022-12-31T12:40:09.288Z,16.47
2022-12-31T12:42:35.775Z,16.39
2022-12-31T12:45:07.554Z,16.38
2022-12-31T12:47:34.816Z,16.44
2022-12-31T12:50:01.412Z,16.43
2022-12-31T12:52:49.316Z,16.52
2022-12-31T12:55:22.700Z,16.54
2022-12-31T12:57:58.097Z,16.61
2022-12-31T13:00:29.644Z,16.74
2022-12-31T13:03:14.884Z,16.70
2022-12-31T13:05:56.995Z,16.68
2022-12-31T13:08:23.375Z,16.65
2022-12-31T13:11:25.814Z,16.57
2022-12-31T13:14:17.045Z,16.56
2022-12-31T13:16:46.726Z,16.55
2022-12-31T13:19:19.479Z,16.59
2022-12-31T13:21:50.459Z,16.57
2022-12-31T13:24:40.925Z,16.54
2022-12-31T13:27:28.669Z,16.55
2022-12-31T13:29:59.445Z,16.41
2022-12-31T13:32:38.822Z,16.49
2022-12-31T13:35:21.988Z,16.50
2022-12-31T13:37:49.804Z,16.46
2022-12-31T13:40:30.379Z,16.40
2022-12-31T13:43:12.631Z,16.43
2022-12-31T13:45:43.140Z,16.46
2022-12-31T13:48:18.091Z,16.28
2022-12-31T13:50:52.153Z,16.53
2022-12-31T13:53:26.918Z,16.50
2022-12-31T13:56:02.075Z,16.51
2022-12-31T13:58:35.701Z,16.45
2022-12-31T14:01:14.953Z,16.50
2022-12-31T14:04:15.432Z,16.49
2022-12-31T14:06:55.454Z,16.43
2022-12-31T14:09:31.398Z,16.33
2022-12-31T14:12:18.199Z,16.32
2022-12-31T14:15:06.017Z,16.49
2022-12-31T14:17:59.106Z,16.33
2022-12-31T14:21:06.757Z,16.30
2022-12-31T14:23:46.583Z,16.41
2022-12-31T14:26:27.254Z,16.42
2022-12-31T14:29:18.907Z,16.32
2022-12-31T14:31:48.019Z,16.23
2022-12-31T14:34:20.828Z,16.26
2022-12-31T14:37:14.853Z,16.13
2022-12-31T14:39:55.369Z,16.10
2022-12-31T14:42:37.496Z,16.06
2022-12-31T14:45:23.408Z,16.06
2022-12-31T14:48:04.736Z,15.99
2022-12-31T14:50:33.842Z,15.91
2022-12-31T14:53:00.129Z,15.96
2022-12-31T14:55:31.881Z,16.02
2022-12-31T15:00:59.240Z,15.96
2022-12-31T15:03:31.544Z,16.08
2022-12-31T15:06:25.759Z,15.98
2022-12-31T15:09:39.598Z,15.95
2022-12-31T15:12:39.407Z,15.94
2022-12-31T15:15:12.192Z,15.92
2022-12-31T15:18:16.283Z,15.84
2022-12-31T15:21:18.139Z,15.79
2022-12-31T15:23:46.029Z,15.68
2022-12-31T15:26:24.790Z,15.56
2022-12-31T15:28:59.574Z,15.64
2022-12-31T15:31:26.597Z,15.61
2022-12-31T15:34:01.031Z,15.53
2022-12-31T15:36:30.522Z,15.44
2022-12-31T15:39:11.957Z,15.38
2022-12-31T15:42:03.005Z,15.35
2022-12-31T15:44:49.931Z,15.44
2022-12-31T15:47:31.019Z,15.47
2022-12-31T15:50:01.861Z,15.57
2022-12-31T15:52:39.253Z,15.39
2022-12-31T15:55:06.991Z,15.43
2022-12-31T15:57:38.763Z,15.35
2022-12-31T16:00:16.813Z,15.35
2022-12-31T16:02:44.217Z,15.51
2022-12-31T16:05:19.754Z,15.47
2022-12-31T16:07:46.526Z,15.47
2022-12-31T16:10:23.722Z,15.50
2022-12-31T16:12:50.226Z,15.50
2022-12-31T16:15:22.988Z,15.43
2022-12-31T16:17:59.260Z,15.45
2022-12-31T16:20:30.195Z,15.41
2022-12-31T16:22:57.823Z,15.48
2022-12-31T16:25:33.074Z,15.40
2022-12-31T16:28:03.102Z,15.34
2022-12-31T16:30:32.157Z,15.27
2022-12-31T16:33:06.648Z,15.23
2022-12-31T16:35:36.313Z,15.11
2022-12-31T16:38:18.577Z,15.13
2022-12-31T16:41:03.492Z,15.22
2022-12-31T16:43:30.874Z,15.27
2022-12-31T16:46:07.028Z,15.35
2022-12-31T16:48:33.501Z,15.31
2022-12-31T16:50:59.884Z,15.22
2022-12-31T16:53:27.667Z,15.19
2022-12-31T16:55:59.722Z,15.13
2022-12-31T16:58:31.115Z,15.21
2022-12-31T17:01:16.189Z,15.16
2022-12-31T17:03:47.288Z,15.09
2022-12-31T17:06:19.907Z,14.96
2022-12-31T17:09:04.783Z,14.88
2022-12-31T17:11:33.354Z,14.81
2022-12-31T17:14:10.310Z,14.66
2022-12-31T17:16:57.755Z,14.68
2022-12-31T17:19:46.983Z,14.75
2022-12-31T17:22:29.826Z,14.71
2022-12-31T17:25:06.163Z,14.73
2022-12-31T17:27:34.037Z,14.81
2022-12-31T17:30:35.139Z,14.69
2022-12-31T17:33:08.781Z,14.75
2022-12-31T17:35:37.296Z,14.83
2022-12-31T17:38:21.744Z,14.78
2022-12-31T17:41:06.423Z,14.95
2022-12-31T17:43:37.779Z,14.80
2022-12-31T17:46:13.488Z,14.89
2022-12-31T17:48:40.977Z,14.93
2022-12-31T17:51:07.496Z,14.88
2022-12-31T17:53:34.213Z,14.86
2022-12-31T17:56:06.171Z,14.87
2022-12-31T17:58:38.294Z,14.89
2022-12-31T18:01:06.581Z,14.90
2022-12-31T18:03:33.094Z,14.88
2022-12-31T18:05:59.616Z,14.92
2022-12-31T18:08:26.013Z,15.05
2022-12-31T18:10:53.877Z,15.20
2022-12-31T18:13:24.017Z,15.18
2022-12-31T18:15:50.899Z,14.94
2022-12-31T18:18:26.211Z,14.91
2022-12-31T18:20:54.499Z,14.89
2022-12-31T18:23:26.080Z,14.93
2022-12-31T18:25:52.407Z,14.92
2022-12-31T18:28:19.185Z,14.87
2022-12-31T18:30:47.008Z,14.78
2022-12-31T18:33:19.757Z,14.77
2022-12-31T18:36:08.176Z,14.72
2022-12-31T18:38:33.549Z,14.92
2022-12-31T18:40:59.976Z,14.85
2022-12-31T18:43:26.630Z,14.94
2022-12-31T18:45:53.340Z,15.01
2022-12-31T18:48:19.873Z,14.85
2022-12-31T18:50:47.341Z,14.83
2022-12-31T18:53:20.489Z,14.84
2022-12-31T18:55:57.345Z,14.85
2022-12-31T18:58:24.022Z,14.86
2022-12-31T19:00:51.371Z,14.80
2022-12-31T19:03:23.709Z,14.89
2022-12-31T19:05:51.210Z,14.97
2022-12-31T19:08:19.094Z,14.98
2022-12-31T19:10:46.272Z,15.05
2022-12-31T19:13:13.975Z,15.01
2022-12-31T19:15:46.885Z,14.91
2022-12-31T19:18:13.293Z,14.85
2022-12-31T19:20:40.920Z,14.86
2022-12-31T19:23:14.738Z,14.90
2022-12-31T19:25:41.076Z,14.84
2022-12-31T19:28:28.613Z,14.80
2022-12-31T19:30:54.993Z,14.95
2022-12-31T19:33:21.581Z,14.91
2022-12-31T19:35:48.542Z,14.90
2022-12-31T19:38:26.049Z,14.98
2022-12-31T19:40:53.524Z,14.88
2022-12-31T19:43:21.761Z,14.86
2022-12-31T19:45:49.585Z,14.78
2022-12-31T19:48:32.022Z,14.84
2022-12-31T19:50:59.582Z,14.78
2022-12-31T19:53:27.557Z,14.79
2022-12-31T19:55:54.189Z,14.83
2022-12-31T19:58:25.180Z,14.75
2022-12-31T20:00:58.219Z,14.62
2022-12-31T20:03:28.421Z,14.57
2022-12-31T20:06:09.501Z,14.50
2022-12-31T20:08:37.814Z,14.71
2022-12-31T20:11:11.573Z,14.59
2022-12-31T20:13:38.901Z,14.52
2022-12-31T20:16:10.228Z,14.44
2022-12-31T20:18:38.209Z,14.38
2022-12-31T20:21:08.625Z,14.31
2022-12-31T20:23:35.070Z,14.51
2022-12-31T20:26:01.903Z,14.54
2022-12-31T20:28:28.346Z,14.49
2022-12-31T20:30:54.783Z,14.49
2022-12-31T20:33:21.306Z,14.40
2022-12-31T20:35:47.679Z,14.51
2022-12-31T20:38:14.028Z,14.51
2022-12-31T20:40:46.367Z,14.37
2022-12-31T20:43:13.338Z,14.36
2022-12-31T20:45:41.071Z,14.32
2022-12-31T20:48:07.489Z,14.28
2022-12-31T20:50:33.761Z,14.25
2022-12-31T20:53:00.121Z,14.20
2022-12-31T20:55:27.285Z,14.20
2022-12-31T20:57:53.587Z,13.98
2022-12-31T21:00:19.982Z,14.04
2022-12-31T21:02:53.817Z,14.01
2022-12-31T21:05:24.186Z,13.97
2022-12-31T21:07:50.692Z,13.89
2022-12-31T21:10:17.095Z,13.92
2022-12-31T21:12:43.450Z,13.92
2022-12-31T21:15:11.640Z,13.91
2022-12-31T21:17:38.090Z,13.91
2022-12-31T21:20:05.503Z,13.93
2022-12-31T21:22:33.679Z,13.90
2022-12-31T21:25:01.452Z,13.95
2022-12-31T21:27:29.119Z,13.90
2022-12-31T21:30:17.798Z,13.93
2022-12-31T21:32:42.123Z,13.91
2022-12-31T21:35:41.074Z,13.91
2022-12-31T21:37:59.215Z,13.90
2022-12-31T21:40:27.149Z,13.89
2022-12-31T21:42:53.694Z,13.83
2022-12-31T21:45:20.014Z,13.83
2022-12-31T21:48:04.985Z,13.70
2022-12-31T21:50:32.604Z,13.66
2022-12-31T21:52:59.210Z,13.67
2022-12-31T21:55:43.976Z,13.72
2022-12-31T21:58:27.611Z,13.63
2022-12-31T22:01:14.747Z,13.60
2022-12-31T22:03:41.617Z,13.52
2022-12-31T22:06:12.304Z,13.50
2022-12-31T22:08:40.089Z,13.48
2022-12-31T22:11:06.870Z,13.52
2022-12-31T22:13:34.049Z,13.45
2022-12-31T22:16:05.154Z,13.46
2022-12-31T22:18:34.901Z,13.40
2022-12-31T22:21:19.547Z,13.39
2022-12-31T22:23:52.183Z,13.29
2022-12-31T22:26:21.565Z,13.31
2022-12-31T22:28:48.357Z,13.32
2022-12-31T22:31:17.984Z,13.38
2022-12-31T22:33:45.059Z,13.68
2022-12-31T22:36:14.592Z,13.69
2022-12-31T22:38:41.013Z,13.70
2022-12-31T22:41:10.084Z,13.65
2022-12-31T22:43:39.584Z,13.76
2022-12-31T22:46:21.102Z,13.71
2022-12-31T22:48:48.192Z,13.79
2022-12-31T22:51:15.766Z,13.70
2022-12-31T22:53:43.307Z,13.80
2022-12-31T22:56:12.149Z,13.78
2022-12-31T22:58:38.497Z,13.76
2022-12-31T23:01:15.014Z,13.62
2022-12-31T23:03:42.211Z,13.57
2022-12-31T23:06:08.581Z,13.57
2022-12-31T23:08:34.925Z,13.49
2022-12-31T23:11:01.482Z,13.39
2022-12-31T23:13:50.841Z,13.37
2022-12-31T23:16:37.413Z,13.47
2022-12-31T23:19:23.493Z,13.35
2022-12-31T23:22:08.242Z,13.36
2022-12-31T23:24:34.625Z,13.30
2022-12-31T23:27:00.934Z,13.23
2022-12-31T23:29:27.491Z,13.24
2022-12-31T23:31:54.224Z,13.16
2022-12-31T23:34:20.900Z,13.11
2022-12-31T23:36:47.208Z,13.14
2022-12-31T23:39:13.577Z,13.07
2022-12-31T23:41:40.328Z,13.09
2022-12-31T23:44:06.763Z,13.12
2022-12-31T23:46:33.192Z,13.02
2022-12-31T23:48:59.645Z,12.95
2022-12-31T23:51:25.956Z,12.91
2022-12-31T23:53:52.326Z,12.84
2022-12-31T23:56:23.740Z,12.76
2022-12-31T23:58:55.215Z,12.67
